sensor_id;sensor_type;location;lat;lon;timestamp;P1;durP1;ratioP1;P2;durP2;ratioP2
76693;SDS011;69667;52.136;5.424;2023-09-18T00:00:50;9.35;;;6.20;;
76693;SDS011;69667;52.136;5.424;2023-09-18T00:03:19;10.15;;;6.03;;
76693;SDS011;69667;52.136;5.424;2023-09-18T00:05:52;8.75;;;5.22;;
76693;SDS011;69667;52.136;5.424;2023-09-18T00:08:20;12.23;;;5.07;;
76693;SDS011;69667;52.136;5.424;2023-09-18T00:10:49;13.43;;;6.10;;
76693;SDS011;69667;52.136;5.424;2023-09-18T00:13:20;8.93;;;5.38;;
76693;SDS011;69667;52.136;5.424;2023-09-18T00:15:48;10.00;;;5.68;;
76693;SDS011;69667;52.136;5.424;2023-09-18T00:18:19;9.73;;;5.47;;
76693;SDS011;69667;52.136;5.424;2023-09-18T00:20:48;12.70;;;6.22;;
76693;SDS011;69667;52.136;5.424;2023-09-18T00:23:19;9.93;;;6.30;;
76693;SDS011;69667;52.136;5.424;2023-09-18T00:25:47;11.38;;;6.82;;
76693;SDS011;69667;52.136;5.424;2023-09-18T00:28:16;10.15;;;5.78;;
76693;SDS011;69667;52.136;5.424;2023-09-18T00:30:48;10.43;;;6.22;;
76693;SDS011;69667;52.136;5.424;2023-09-18T00:33:18;8.90;;;5.20;;
76693;SDS011;69667;52.136;5.424;2023-09-18T00:35:47;12.65;;;5.70;;
76693;SDS011;69667;52.136;5.424;2023-09-18T00:38:16;9.70;;;5.57;;
76693;SDS011;69667;52.136;5.424;2023-09-18T00:40:47;8.18;;;5.72;;
76693;SDS011;69667;52.136;5.424;2023-09-18T00:43:15;10.70;;;5.97;;
76693;SDS011;69667;52.136;5.424;2023-09-18T00:45:45;9.52;;;5.80;;
76693;SDS011;69667;52.136;5.424;2023-09-18T00:48:16;9.52;;;4.40;;
76693;SDS011;69667;52.136;5.424;2023-09-18T00:50:45;8.88;;;5.18;;
76693;SDS011;69667;52.136;5.424;2023-09-18T00:55:47;7.00;;;4.90;;
76693;SDS011;69667;52.136;5.424;2023-09-18T00:58:16;11.13;;;5.13;;
76693;SDS011;69667;52.136;5.424;2023-09-18T01:00:45;11.52;;;5.85;;
76693;SDS011;69667;52.136;5.424;2023-09-18T01:03:13;9.27;;;5.65;;
76693;SDS011;69667;52.136;5.424;2023-09-18T01:05:45;7.85;;;5.32;;
76693;SDS011;69667;52.136;5.424;2023-09-18T01:10:50;9.65;;;5.40;;
76693;SDS011;69667;52.136;5.424;2023-09-18T01:13:35;7.03;;;4.63;;
76693;SDS011;69667;52.136;5.424;2023-09-18T01:16:17;8.57;;;5.15;;
76693;SDS011;69667;52.136;5.424;2023-09-18T01:18:52;8.05;;;5.13;;
76693;SDS011;69667;52.136;5.424;2023-09-18T01:23:49;7.70;;;5.25;;
76693;SDS011;69667;52.136;5.424;2023-09-18T01:26:18;10.90;;;5.90;;
76693;SDS011;69667;52.136;5.424;2023-09-18T01:28:47;7.40;;;5.50;;
76693;SDS011;69667;52.136;5.424;2023-09-18T01:31:15;11.80;;;5.55;;
76693;SDS011;69667;52.136;5.424;2023-09-18T01:33:45;8.40;;;4.88;;
76693;SDS011;69667;52.136;5.424;2023-09-18T01:36:14;7.32;;;4.93;;
76693;SDS011;69667;52.136;5.424;2023-09-18T01:38:44;9.07;;;5.82;;
76693;SDS011;69667;52.136;5.424;2023-09-18T01:41:14;9.00;;;5.45;;
76693;SDS011;69667;52.136;5.424;2023-09-18T01:43:42;9.00;;;5.13;;
76693;SDS011;69667;52.136;5.424;2023-09-18T01:46:11;9.63;;;5.35;;
76693;SDS011;69667;52.136;5.424;2023-09-18T01:48:45;13.82;;;5.50;;
76693;SDS011;69667;52.136;5.424;2023-09-18T01:51:14;9.68;;;6.05;;
76693;SDS011;69667;52.136;5.424;2023-09-18T01:53:43;10.07;;;5.35;;
76693;SDS011;69667;52.136;5.424;2023-09-18T01:56:12;9.25;;;5.70;;
76693;SDS011;69667;52.136;5.424;2023-09-18T01:58:40;10.57;;;6.55;;
76693;SDS011;69667;52.136;5.424;2023-09-18T02:01:09;9.32;;;5.75;;
76693;SDS011;69667;52.136;5.424;2023-09-18T02:03:38;8.45;;;5.25;;
76693;SDS011;69667;52.136;5.424;2023-09-18T02:06:29;7.43;;;4.65;;
76693;SDS011;69667;52.136;5.424;2023-09-18T02:08:58;7.20;;;5.05;;
76693;SDS011;69667;52.136;5.424;2023-09-18T02:11:27;8.30;;;4.97;;
76693;SDS011;69667;52.136;5.424;2023-09-18T02:13:56;8.57;;;5.10;;
76693;SDS011;69667;52.136;5.424;2023-09-18T02:16:24;9.70;;;5.20;;
76693;SDS011;69667;52.136;5.424;2023-09-18T02:18:54;8.68;;;5.28;;
76693;SDS011;69667;52.136;5.424;2023-09-18T02:21:23;11.38;;;5.82;;
76693;SDS011;69667;52.136;5.424;2023-09-18T02:23:52;9.13;;;5.13;;
76693;SDS011;69667;52.136;5.424;2023-09-18T02:26:24;8.60;;;4.45;;
76693;SDS011;69667;52.136;5.424;2023-09-18T02:28:53;10.07;;;4.95;;
76693;SDS011;69667;52.136;5.424;2023-09-18T02:31:22;8.45;;;5.50;;
76693;SDS011;69667;52.136;5.424;2023-09-18T02:33:50;7.82;;;4.78;;
76693;SDS011;69667;52.136;5.424;2023-09-18T02:36:19;7.75;;;5.20;;
76693;SDS011;69667;52.136;5.424;2023-09-18T02:38:48;7.97;;;5.32;;
76693;SDS011;69667;52.136;5.424;2023-09-18T02:41:17;8.25;;;5.72;;
76693;SDS011;69667;52.136;5.424;2023-09-18T02:43:46;8.63;;;5.20;;
76693;SDS011;69667;52.136;5.424;2023-09-18T02:46:16;6.68;;;4.95;;
76693;SDS011;69667;52.136;5.424;2023-09-18T02:48:44;7.53;;;4.38;;
76693;SDS011;69667;52.136;5.424;2023-09-18T02:51:12;6.32;;;4.38;;
76693;SDS011;69667;52.136;5.424;2023-09-18T02:53:41;8.32;;;5.25;;
76693;SDS011;69667;52.136;5.424;2023-09-18T02:56:09;8.40;;;5.22;;
76693;SDS011;69667;52.136;5.424;2023-09-18T02:58:37;9.55;;;5.38;;
76693;SDS011;69667;52.136;5.424;2023-09-18T03:01:07;9.77;;;5.82;;
76693;SDS011;69667;52.136;5.424;2023-09-18T03:03:36;8.57;;;5.65;;
76693;SDS011;69667;52.136;5.424;2023-09-18T03:06:04;8.60;;;5.35;;
76693;SDS011;69667;52.136;5.424;2023-09-18T03:08:33;9.98;;;5.93;;
76693;SDS011;69667;52.136;5.424;2023-09-18T03:11:10;10.25;;;5.93;;
76693;SDS011;69667;52.136;5.424;2023-09-18T03:13:43;10.57;;;6.63;;
76693;SDS011;69667;52.136;5.424;2023-09-18T03:16:14;10.52;;;6.18;;
76693;SDS011;69667;52.136;5.424;2023-09-18T03:18:45;8.10;;;5.07;;
76693;SDS011;69667;52.136;5.424;2023-09-18T03:21:13;10.05;;;6.45;;
76693;SDS011;69667;52.136;5.424;2023-09-18T03:26:10;7.20;;;5.00;;
76693;SDS011;69667;52.136;5.424;2023-09-18T03:28:39;10.52;;;5.97;;
76693;SDS011;69667;52.136;5.424;2023-09-18T03:31:07;10.57;;;6.15;;
76693;SDS011;69667;52.136;5.424;2023-09-18T03:33:36;10.88;;;6.72;;
76693;SDS011;69667;52.136;5.424;2023-09-18T03:36:04;12.55;;;5.93;;
76693;SDS011;69667;52.136;5.424;2023-09-18T03:38:34;10.48;;;7.43;;
76693;SDS011;69667;52.136;5.424;2023-09-18T03:41:04;10.68;;;5.78;;
76693;SDS011;69667;52.136;5.424;2023-09-18T03:43:33;10.10;;;5.78;;
76693;SDS011;69667;52.136;5.424;2023-09-18T03:46:05;9.57;;;5.43;;
76693;SDS011;69667;52.136;5.424;2023-09-18T03:48:43;12.38;;;5.75;;
76693;SDS011;69667;52.136;5.424;2023-09-18T03:51:11;11.93;;;6.43;;
76693;SDS011;69667;52.136;5.424;2023-09-18T03:53:43;10.73;;;6.25;;
76693;SDS011;69667;52.136;5.424;2023-09-18T03:56:11;12.18;;;7.18;;
76693;SDS011;69667;52.136;5.424;2023-09-18T03:58:40;14.32;;;6.90;;
76693;SDS011;69667;52.136;5.424;2023-09-18T04:01:08;10.45;;;6.18;;
76693;SDS011;69667;52.136;5.424;2023-09-18T04:03:36;11.27;;;6.38;;
76693;SDS011;69667;52.136;5.424;2023-09-18T04:06:05;12.15;;;7.00;;
76693;SDS011;69667;52.136;5.424;2023-09-18T04:08:34;10.02;;;6.40;;
76693;SDS011;69667;52.136;5.424;2023-09-18T04:11:02;11.32;;;6.70;;
76693;SDS011;69667;52.136;5.424;2023-09-18T04:13:31;9.60;;;6.10;;
76693;SDS011;69667;52.136;5.424;2023-09-18T04:16:01;16.95;;;7.10;;
76693;SDS011;69667;52.136;5.424;2023-09-18T04:18:31;11.40;;;6.40;;
76693;SDS011;69667;52.136;5.424;2023-09-18T04:21:00;9.45;;;5.57;;
76693;SDS011;69667;52.136;5.424;2023-09-18T04:23:29;8.50;;;5.80;;
76693;SDS011;69667;52.136;5.424;2023-09-18T04:25:57;10.77;;;6.38;;
76693;SDS011;69667;52.136;5.424;2023-09-18T04:28:26;12.80;;;6.18;;
76693;SDS011;69667;52.136;5.424;2023-09-18T04:30:55;11.43;;;6.90;;
76693;SDS011;69667;52.136;5.424;2023-09-18T04:33:24;12.32;;;5.80;;
76693;SDS011;69667;52.136;5.424;2023-09-18T04:35:56;11.43;;;6.03;;
76693;SDS011;69667;52.136;5.424;2023-09-18T04:38:24;10.55;;;6.00;;
76693;SDS011;69667;52.136;5.424;2023-09-18T04:43:30;9.68;;;4.95;;
76693;SDS011;69667;52.136;5.424;2023-09-18T04:46:00;9.43;;;5.22;;
76693;SDS011;69667;52.136;5.424;2023-09-18T04:48:34;10.38;;;5.97;;
76693;SDS011;69667;52.136;5.424;2023-09-18T04:51:04;9.18;;;5.00;;
76693;SDS011;69667;52.136;5.424;2023-09-18T04:53:34;9.35;;;5.47;;
76693;SDS011;69667;52.136;5.424;2023-09-18T04:56:02;9.18;;;4.95;;
76693;SDS011;69667;52.136;5.424;2023-09-18T04:58:32;7.57;;;4.70;;
76693;SDS011;69667;52.136;5.424;2023-09-18T05:01:01;10.88;;;6.13;;
76693;SDS011;69667;52.136;5.424;2023-09-18T05:03:30;9.90;;;5.38;;
76693;SDS011;69667;52.136;5.424;2023-09-18T05:05:58;8.80;;;5.38;;
76693;SDS011;69667;52.136;5.424;2023-09-18T05:08:27;16.88;;;5.88;;
76693;SDS011;69667;52.136;5.424;2023-09-18T05:10:55;13.10;;;5.80;;
76693;SDS011;69667;52.136;5.424;2023-09-18T05:13:24;9.20;;;5.03;;
76693;SDS011;69667;52.136;5.424;2023-09-18T05:15:53;9.20;;;5.00;;
76693;SDS011;69667;52.136;5.424;2023-09-18T05:18:21;8.15;;;3.50;;
76693;SDS011;69667;52.136;5.424;2023-09-18T05:20:49;6.65;;;3.60;;
76693;SDS011;69667;52.136;5.424;2023-09-18T05:23:17;5.70;;;3.40;;
76693;SDS011;69667;52.136;5.424;2023-09-18T05:25:46;5.93;;;3.42;;
76693;SDS011;69667;52.136;5.424;2023-09-18T05:28:15;5.43;;;3.00;;
76693;SDS011;69667;52.136;5.424;2023-09-18T05:30:43;5.47;;;2.85;;
76693;SDS011;69667;52.136;5.424;2023-09-18T05:33:11;5.00;;;2.50;;
76693;SDS011;69667;52.136;5.424;2023-09-18T05:35:41;6.05;;;3.00;;
76693;SDS011;69667;52.136;5.424;2023-09-18T05:38:11;3.85;;;2.25;;
76693;SDS011;69667;52.136;5.424;2023-09-18T05:40:41;8.55;;;3.17;;
76693;SDS011;69667;52.136;5.424;2023-09-18T05:43:11;3.58;;;1.92;;
76693;SDS011;69667;52.136;5.424;2023-09-18T05:45:39;4.38;;;2.33;;
76693;SDS011;69667;52.136;5.424;2023-09-18T05:48:07;5.40;;;2.60;;
76693;SDS011;69667;52.136;5.424;2023-09-18T05:50:38;3.17;;;1.90;;
76693;SDS011;69667;52.136;5.424;2023-09-18T05:53:08;4.40;;;1.98;;
76693;SDS011;69667;52.136;5.424;2023-09-18T05:55:37;3.70;;;2.03;;
76693;SDS011;69667;52.136;5.424;2023-09-18T05:58:05;3.28;;;2.03;;
76693;SDS011;69667;52.136;5.424;2023-09-18T06:00:34;4.93;;;2.80;;
76693;SDS011;69667;52.136;5.424;2023-09-18T06:03:04;4.47;;;2.75;;
76693;SDS011;69667;52.136;5.424;2023-09-18T06:05:33;3.80;;;2.38;;
76693;SDS011;69667;52.136;5.424;2023-09-18T06:08:02;6.65;;;2.50;;
76693;SDS011;69667;52.136;5.424;2023-09-18T06:10:31;5.28;;;2.65;;
76693;SDS011;69667;52.136;5.424;2023-09-18T06:13:00;4.65;;;2.45;;
76693;SDS011;69667;52.136;5.424;2023-09-18T06:15:32;4.63;;;2.50;;
76693;SDS011;69667;52.136;5.424;2023-09-18T06:18:00;5.53;;;2.28;;
76693;SDS011;69667;52.136;5.424;2023-09-18T06:22:57;4.57;;;2.80;;
76693;SDS011;69667;52.136;5.424;2023-09-18T06:25:25;4.68;;;2.60;;
76693;SDS011;69667;52.136;5.424;2023-09-18T06:27:54;5.13;;;2.97;;
76693;SDS011;69667;52.136;5.424;2023-09-18T06:30:22;6.47;;;3.90;;
76693;SDS011;69667;52.136;5.424;2023-09-18T06:32:50;5.55;;;3.42;;
76693;SDS011;69667;52.136;5.424;2023-09-18T06:35:20;5.15;;;2.78;;
76693;SDS011;69667;52.136;5.424;2023-09-18T06:37:48;5.47;;;3.47;;
76693;SDS011;69667;52.136;5.424;2023-09-18T06:40:17;4.43;;;2.72;;
76693;SDS011;69667;52.136;5.424;2023-09-18T06:42:45;4.50;;;3.00;;
76693;SDS011;69667;52.136;5.424;2023-09-18T06:45:13;5.72;;;2.90;;
76693;SDS011;69667;52.136;5.424;2023-09-18T06:47:42;5.45;;;3.40;;
76693;SDS011;69667;52.136;5.424;2023-09-18T06:50:10;5.85;;;3.15;;
76693;SDS011;69667;52.136;5.424;2023-09-18T06:52:39;7.53;;;3.17;;
76693;SDS011;69667;52.136;5.424;2023-09-18T06:55:08;8.40;;;3.53;;
76693;SDS011;69667;52.136;5.424;2023-09-18T07:00:04;8.15;;;3.13;;
76693;SDS011;69667;52.136;5.424;2023-09-18T07:02:33;5.82;;;3.58;;
76693;SDS011;69667;52.136;5.424;2023-09-18T07:05:02;6.28;;;3.00;;
76693;SDS011;69667;52.136;5.424;2023-09-18T07:07:32;7.82;;;4.03;;
76693;SDS011;69667;52.136;5.424;2023-09-18T07:10:00;6.03;;;2.90;;
76693;SDS011;69667;52.136;5.424;2023-09-18T07:12:31;5.72;;;3.80;;
76693;SDS011;69667;52.136;5.424;2023-09-18T07:15:01;7.00;;;4.13;;
76693;SDS011;69667;52.136;5.424;2023-09-18T07:17:34;5.72;;;3.92;;
76693;SDS011;69667;52.136;5.424;2023-09-18T07:20:03;6.45;;;4.18;;
76693;SDS011;69667;52.136;5.424;2023-09-18T07:22:45;7.68;;;4.00;;
76693;SDS011;69667;52.136;5.424;2023-09-18T07:25:17;5.85;;;3.80;;
76693;SDS011;69667;52.136;5.424;2023-09-18T07:27:45;6.55;;;3.58;;
76693;SDS011;69667;52.136;5.424;2023-09-18T07:30:14;6.28;;;3.67;;
76693;SDS011;69667;52.136;5.424;2023-09-18T07:32:47;6.88;;;3.67;;
76693;SDS011;69667;52.136;5.424;2023-09-18T07:35:16;6.75;;;3.78;;
76693;SDS011;69667;52.136;5.424;2023-09-18T07:37:44;5.90;;;3.35;;
76693;SDS011;69667;52.136;5.424;2023-09-18T07:40:14;7.03;;;3.97;;
76693;SDS011;69667;52.136;5.424;2023-09-18T07:42:45;5.72;;;3.85;;
76693;SDS011;69667;52.136;5.424;2023-09-18T07:45:13;8.15;;;3.50;;
76693;SDS011;69667;52.136;5.424;2023-09-18T07:47:42;5.30;;;3.10;;
76693;SDS011;69667;52.136;5.424;2023-09-18T07:50:10;6.60;;;3.65;;
76693;SDS011;69667;52.136;5.424;2023-09-18T07:52:38;6.03;;;3.25;;
76693;SDS011;69667;52.136;5.424;2023-09-18T07:55:07;6.07;;;3.53;;
76693;SDS011;69667;52.136;5.424;2023-09-18T07:57:36;7.82;;;3.97;;
76693;SDS011;69667;52.136;5.424;2023-09-18T08:00:05;6.55;;;3.70;;
76693;SDS011;69667;52.136;5.424;2023-09-18T08:05:10;5.75;;;3.33;;
76693;SDS011;69667;52.136;5.424;2023-09-18T08:07:38;6.90;;;3.10;;
76693;SDS011;69667;52.136;5.424;2023-09-18T08:10:07;5.20;;;2.60;;
76693;SDS011;69667;52.136;5.424;2023-09-18T08:12:36;4.53;;;2.40;;
76693;SDS011;69667;52.136;5.424;2023-09-18T08:15:04;5.88;;;3.08;;
76693;SDS011;69667;52.136;5.424;2023-09-18T08:17:33;4.75;;;2.55;;
76693;SDS011;69667;52.136;5.424;2023-09-18T08:20:03;3.80;;;2.20;;
76693;SDS011;69667;52.136;5.424;2023-09-18T08:22:39;5.55;;;2.35;;
76693;SDS011;69667;52.136;5.424;2023-09-18T08:25:07;5.35;;;2.40;;
76693;SDS011;69667;52.136;5.424;2023-09-18T08:27:38;4.80;;;2.30;;
76693;SDS011;69667;52.136;5.424;2023-09-18T08:30:09;5.90;;;2.55;;
76693;SDS011;69667;52.136;5.424;2023-09-18T08:32:42;3.90;;;2.20;;
76693;SDS011;69667;52.136;5.424;2023-09-18T08:35:10;4.93;;;2.15;;
76693;SDS011;69667;52.136;5.424;2023-09-18T08:37:41;5.07;;;2.70;;
76693;SDS011;69667;52.136;5.424;2023-09-18T08:40:11;3.47;;;1.90;;
76693;SDS011;69667;52.136;5.424;2023-09-18T08:42:47;4.47;;;2.35;;
76693;SDS011;69667;52.136;5.424;2023-09-18T08:45:25;3.25;;;1.92;;
76693;SDS011;69667;52.136;5.424;2023-09-18T08:50:28;3.00;;;2.05;;
76693;SDS011;69667;52.136;5.424;2023-09-18T08:52:59;4.60;;;2.42;;
76693;SDS011;69667;52.136;5.424;2023-09-18T08:55:33;2.83;;;1.65;;
76693;SDS011;69667;52.136;5.424;2023-09-18T08:58:01;4.57;;;2.05;;
76693;SDS011;69667;52.136;5.424;2023-09-18T09:00:32;3.22;;;1.90;;
76693;SDS011;69667;52.136;5.424;2023-09-18T09:03:05;5.53;;;2.42;;
76693;SDS011;69667;52.136;5.424;2023-09-18T09:08:01;3.55;;;1.67;;
76693;SDS011;69667;52.136;5.424;2023-09-18T09:12:58;3.92;;;1.80;;
76693;SDS011;69667;52.136;5.424;2023-09-18T09:15:29;3.60;;;1.90;;
76693;SDS011;69667;52.136;5.424;2023-09-18T09:18:06;3.47;;;1.95;;
76693;SDS011;69667;52.136;5.424;2023-09-18T09:20:38;3.95;;;1.80;;
76693;SDS011;69667;52.136;5.424;2023-09-18T09:23:08;2.92;;;1.75;;
76693;SDS011;69667;52.136;5.424;2023-09-18T09:25:38;6.82;;;2.17;;
76693;SDS011;69667;52.136;5.424;2023-09-18T09:28:06;5.50;;;1.98;;
76693;SDS011;69667;52.136;5.424;2023-09-18T09:30:35;4.57;;;1.83;;
76693;SDS011;69667;52.136;5.424;2023-09-18T09:33:04;4.38;;;1.75;;
76693;SDS011;69667;52.136;5.424;2023-09-18T09:35:37;3.58;;;1.73;;
76693;SDS011;69667;52.136;5.424;2023-09-18T09:38:09;2.58;;;1.60;;
76693;SDS011;69667;52.136;5.424;2023-09-18T09:40:40;3.25;;;1.83;;
76693;SDS011;69667;52.136;5.424;2023-09-18T09:43:10;2.58;;;1.40;;
76693;SDS011;69667;52.136;5.424;2023-09-18T09:45:42;2.58;;;1.63;;
76693;SDS011;69667;52.136;5.424;2023-09-18T09:48:13;4.20;;;1.80;;
76693;SDS011;69667;52.136;5.424;2023-09-18T09:50:45;3.17;;;1.88;;
76693;SDS011;69667;52.136;5.424;2023-09-18T09:53:16;3.35;;;2.17;;
76693;SDS011;69667;52.136;5.424;2023-09-18T09:55:51;5.15;;;2.60;;
76693;SDS011;69667;52.136;5.424;2023-09-18T09:58:26;4.28;;;2.70;;
76693;SDS011;69667;52.136;5.424;2023-09-18T10:00:58;3.13;;;2.28;;
76693;SDS011;69667;52.136;5.424;2023-09-18T10:03:36;3.72;;;2.30;;
76693;SDS011;69667;52.136;5.424;2023-09-18T10:06:07;4.63;;;2.97;;
76693;SDS011;69667;52.136;5.424;2023-09-18T10:08:40;5.00;;;3.13;;
76693;SDS011;69667;52.136;5.424;2023-09-18T10:11:09;4.38;;;2.88;;
76693;SDS011;69667;52.136;5.424;2023-09-18T10:16:17;4.45;;;2.53;;
76693;SDS011;69667;52.136;5.424;2023-09-18T10:19:11;3.50;;;2.60;;
76693;SDS011;69667;52.136;5.424;2023-09-18T10:22:20;3.97;;;2.90;;
76693;SDS011;69667;52.136;5.424;2023-09-18T10:25:07;3.63;;;2.50;;
76693;SDS011;69667;52.136;5.424;2023-09-18T10:27:46;5.90;;;2.90;;
76693;SDS011;69667;52.136;5.424;2023-09-18T10:30:16;3.42;;;2.75;;
76693;SDS011;69667;52.136;5.424;2023-09-18T10:32:50;3.83;;;2.40;;
76693;SDS011;69667;52.136;5.424;2023-09-18T10:35:19;4.25;;;2.58;;
76693;SDS011;69667;52.136;5.424;2023-09-18T10:37:48;3.60;;;2.88;;
76693;SDS011;69667;52.136;5.424;2023-09-18T10:40:21;7.63;;;3.15;;
76693;SDS011;69667;52.136;5.424;2023-09-18T10:42:50;6.57;;;3.50;;
76693;SDS011;69667;52.136;5.424;2023-09-18T10:45:24;6.43;;;3.58;;
76693;SDS011;69667;52.136;5.424;2023-09-18T10:47:53;6.75;;;3.08;;
76693;SDS011;69667;52.136;5.424;2023-09-18T10:50:26;5.43;;;3.13;;
76693;SDS011;69667;52.136;5.424;2023-09-18T10:52:57;5.20;;;3.17;;
76693;SDS011;69667;52.136;5.424;2023-09-18T10:55:28;4.63;;;3.53;;
76693;SDS011;69667;52.136;5.424;2023-09-18T10:57:59;3.88;;;3.03;;
76693;SDS011;69667;52.136;5.424;2023-09-18T11:00:33;4.15;;;3.40;;
76693;SDS011;69667;52.136;5.424;2023-09-18T11:03:13;5.60;;;3.13;;
76693;SDS011;69667;52.136;5.424;2023-09-18T11:05:47;5.95;;;3.20;;
76693;SDS011;69667;52.136;5.424;2023-09-18T11:08:30;3.42;;;3.05;;
76693;SDS011;69667;52.136;5.424;2023-09-18T11:11:02;7.32;;;3.20;;
76693;SDS011;69667;52.136;5.424;2023-09-18T11:13:39;4.35;;;3.35;;
76693;SDS011;69667;52.136;5.424;2023-09-18T11:16:33;4.35;;;3.10;;
76693;SDS011;69667;52.136;5.424;2023-09-18T11:19:12;7.03;;;3.22;;
76693;SDS011;69667;52.136;5.424;2023-09-18T11:21:46;7.00;;;3.28;;
76693;SDS011;69667;52.136;5.424;2023-09-18T11:24:15;4.07;;;2.90;;
76693;SDS011;69667;52.136;5.424;2023-09-18T11:26:46;3.78;;;2.20;;
76693;SDS011;69667;52.136;5.424;2023-09-18T11:29:16;4.53;;;2.60;;
76693;SDS011;69667;52.136;5.424;2023-09-18T11:31:50;3.97;;;2.35;;
76693;SDS011;69667;52.136;5.424;2023-09-18T11:34:21;4.05;;;2.50;;
76693;SDS011;69667;52.136;5.424;2023-09-18T11:36:55;4.55;;;3.65;;
76693;SDS011;69667;52.136;5.424;2023-09-18T11:39:35;3.03;;;2.08;;
76693;SDS011;69667;52.136;5.424;2023-09-18T11:42:06;4.00;;;2.55;;
76693;SDS011;69667;52.136;5.424;2023-09-18T11:44:41;3.70;;;2.70;;
76693;SDS011;69667;52.136;5.424;2023-09-18T11:47:15;4.15;;;2.95;;
76693;SDS011;69667;52.136;5.424;2023-09-18T11:49:49;5.45;;;2.72;;
76693;SDS011;69667;52.136;5.424;2023-09-18T11:52:24;4.53;;;2.80;;
76693;SDS011;69667;52.136;5.424;2023-09-18T11:54:55;6.28;;;3.15;;
76693;SDS011;69667;52.136;5.424;2023-09-18T11:57:24;5.40;;;3.28;;
76693;SDS011;69667;52.136;5.424;2023-09-18T11:59:54;4.15;;;3.47;;
76693;SDS011;69667;52.136;5.424;2023-09-18T12:02:27;4.72;;;3.10;;
76693;SDS011;69667;52.136;5.424;2023-09-18T12:05:15;4.57;;;3.03;;
76693;SDS011;69667;52.136;5.424;2023-09-18T12:07:51;7.80;;;3.20;;
76693;SDS011;69667;52.136;5.424;2023-09-18T12:10:20;5.57;;;2.75;;
76693;SDS011;69667;52.136;5.424;2023-09-18T12:12:50;4.97;;;3.15;;
76693;SDS011;69667;52.136;5.424;2023-09-18T12:15:18;5.07;;;2.13;;
76693;SDS011;69667;52.136;5.424;2023-09-18T12:17:54;5.03;;;2.65;;
76693;SDS011;69667;52.136;5.424;2023-09-18T12:20:23;4.32;;;2.70;;
76693;SDS011;69667;52.136;5.424;2023-09-18T12:22:52;4.90;;;1.98;;
76693;SDS011;69667;52.136;5.424;2023-09-18T12:25:20;3.78;;;2.30;;
76693;SDS011;69667;52.136;5.424;2023-09-18T12:27:51;8.68;;;2.83;;
76693;SDS011;69667;52.136;5.424;2023-09-18T12:30:22;3.30;;;2.13;;
76693;SDS011;69667;52.136;5.424;2023-09-18T12:32:52;3.55;;;2.10;;
76693;SDS011;69667;52.136;5.424;2023-09-18T12:35:21;4.05;;;2.08;;
76693;SDS011;69667;52.136;5.424;2023-09-18T12:40:31;4.05;;;2.38;;
76693;SDS011;69667;52.136;5.424;2023-09-18T12:43:00;4.18;;;2.10;;
76693;SDS011;69667;52.136;5.424;2023-09-18T12:45:31;3.50;;;2.38;;
76693;SDS011;69667;52.136;5.424;2023-09-18T12:48:00;3.78;;;2.05;;
76693;SDS011;69667;52.136;5.424;2023-09-18T12:50:30;4.00;;;2.30;;
76693;SDS011;69667;52.136;5.424;2023-09-18T12:53:11;4.53;;;2.55;;
76693;SDS011;69667;52.136;5.424;2023-09-18T12:55:40;3.80;;;2.10;;
76693;SDS011;69667;52.136;5.424;2023-09-18T12:58:12;3.78;;;2.20;;
76693;SDS011;69667;52.136;5.424;2023-09-18T13:00:44;3.30;;;2.17;;
76693;SDS011;69667;52.136;5.424;2023-09-18T13:03:16;3.05;;;2.00;;
76693;SDS011;69667;52.136;5.424;2023-09-18T13:05:45;2.85;;;2.00;;
76693;SDS011;69667;52.136;5.424;2023-09-18T13:08:15;3.10;;;2.10;;
76693;SDS011;69667;52.136;5.424;2023-09-18T13:10:50;3.70;;;2.00;;
76693;SDS011;69667;52.136;5.424;2023-09-18T13:13:20;3.85;;;2.20;;
76693;SDS011;69667;52.136;5.424;2023-09-18T13:15:56;3.58;;;2.00;;
76693;SDS011;69667;52.136;5.424;2023-09-18T13:18:27;3.15;;;1.95;;
76693;SDS011;69667;52.136;5.424;2023-09-18T13:20:56;4.82;;;2.25;;
76693;SDS011;69667;52.136;5.424;2023-09-18T13:23:31;4.30;;;1.92;;
76693;SDS011;69667;52.136;5.424;2023-09-18T13:26:03;4.05;;;2.13;;
76693;SDS011;69667;52.136;5.424;2023-09-18T13:28:34;5.00;;;1.98;;
76693;SDS011;69667;52.136;5.424;2023-09-18T13:31:04;3.70;;;1.73;;
76693;SDS011;69667;52.136;5.424;2023-09-18T13:33:39;2.85;;;1.80;;
76693;SDS011;69667;52.136;5.424;2023-09-18T13:36:08;4.05;;;1.60;;
76693;SDS011;69667;52.136;5.424;2023-09-18T13:38:40;3.25;;;1.67;;
76693;SDS011;69667;52.136;5.424;2023-09-18T13:41:08;4.25;;;1.80;;
76693;SDS011;69667;52.136;5.424;2023-09-18T13:43:36;4.57;;;1.80;;
76693;SDS011;69667;52.136;5.424;2023-09-18T13:46:04;3.05;;;1.88;;
76693;SDS011;69667;52.136;5.424;2023-09-18T13:48:33;3.95;;;1.90;;
76693;SDS011;69667;52.136;5.424;2023-09-18T13:53:30;3.92;;;1.83;;
76693;SDS011;69667;52.136;5.424;2023-09-18T13:58:27;2.58;;;1.45;;
76693;SDS011;69667;52.136;5.424;2023-09-18T14:00:55;4.10;;;1.80;;
76693;SDS011;69667;52.136;5.424;2023-09-18T14:03:24;3.28;;;1.30;;
76693;SDS011;69667;52.136;5.424;2023-09-18T14:06:02;3.22;;;1.50;;
76693;SDS011;69667;52.136;5.424;2023-09-18T14:08:32;2.30;;;1.30;;
76693;SDS011;69667;52.136;5.424;2023-09-18T14:11:01;2.13;;;1.17;;
76693;SDS011;69667;52.136;5.424;2023-09-18T14:13:34;3.97;;;1.30;;
76693;SDS011;69667;52.136;5.424;2023-09-18T14:16:03;2.25;;;1.15;;
76693;SDS011;69667;52.136;5.424;2023-09-18T14:20:59;2.88;;;1.10;;
76693;SDS011;69667;52.136;5.424;2023-09-18T14:23:27;2.80;;;1.00;;
76693;SDS011;69667;52.136;5.424;2023-09-18T14:25:55;1.98;;;1.27;;
76693;SDS011;69667;52.136;5.424;2023-09-18T14:28:24;2.45;;;1.10;;
76693;SDS011;69667;52.136;5.424;2023-09-18T14:30:52;2.58;;;1.10;;
76693;SDS011;69667;52.136;5.424;2023-09-18T14:33:20;2.35;;;1.10;;
76693;SDS011;69667;52.136;5.424;2023-09-18T14:35:49;2.00;;;1.10;;
76693;SDS011;69667;52.136;5.424;2023-09-18T14:38:18;2.90;;;1.25;;
76693;SDS011;69667;52.136;5.424;2023-09-18T14:40:46;2.47;;;1.10;;
76693;SDS011;69667;52.136;5.424;2023-09-18T14:43:15;4.28;;;0.95;;
76693;SDS011;69667;52.136;5.424;2023-09-18T14:45:43;1.95;;;1.13;;
76693;SDS011;69667;52.136;5.424;2023-09-18T14:48:11;4.95;;;1.20;;
76693;SDS011;69667;52.136;5.424;2023-09-18T14:50:40;3.20;;;1.17;;
76693;SDS011;69667;52.136;5.424;2023-09-18T14:53:08;2.63;;;1.13;;
76693;SDS011;69667;52.136;5.424;2023-09-18T14:55:37;3.10;;;1.45;;
76693;SDS011;69667;52.136;5.424;2023-09-18T14:58:05;4.30;;;1.50;;
76693;SDS011;69667;52.136;5.424;2023-09-18T15:03:02;1.85;;;0.93;;
76693;SDS011;69667;52.136;5.424;2023-09-18T15:07:58;2.70;;;1.10;;
76693;SDS011;69667;52.136;5.424;2023-09-18T15:10:26;7.70;;;1.50;;
76693;SDS011;69667;52.136;5.424;2023-09-18T15:12:55;3.50;;;1.55;;
76693;SDS011;69667;52.136;5.424;2023-09-18T15:15:23;3.00;;;1.23;;
76693;SDS011;69667;52.136;5.424;2023-09-18T15:17:51;2.58;;;1.42;;
76693;SDS011;69667;52.136;5.424;2023-09-18T15:22:52;3.88;;;1.00;;
76693;SDS011;69667;52.136;5.424;2023-09-18T15:25:22;1.60;;;0.52;;
76693;SDS011;69667;52.136;5.424;2023-09-18T15:27:51;4.07;;;0.60;;
76693;SDS011;69667;52.136;5.424;2023-09-18T15:32:48;1.52;;;0.45;;
76693;SDS011;69667;52.136;5.424;2023-09-18T15:35:23;1.45;;;0.75;;
76693;SDS011;69667;52.136;5.424;2023-09-18T15:37:52;4.97;;;0.98;;
76693;SDS011;69667;52.136;5.424;2023-09-18T15:40:22;2.33;;;0.65;;
76693;SDS011;69667;52.136;5.424;2023-09-18T15:45:39;1.52;;;0.70;;
76693;SDS011;69667;52.136;5.424;2023-09-18T15:48:11;1.33;;;0.60;;
76693;SDS011;69667;52.136;5.424;2023-09-18T15:50:40;2.75;;;0.80;;
76693;SDS011;69667;52.136;5.424;2023-09-18T15:55:45;1.15;;;0.57;;
76693;SDS011;69667;52.136;5.424;2023-09-18T16:00:56;1.95;;;0.75;;
76693;SDS011;69667;52.136;5.424;2023-09-18T16:06:04;2.80;;;0.85;;